Time;durP1;ratioP1;P1;durP2;ratioP2;P2;SDS_P1;SDS_P2;PMS_P1;PMS_P2;Temp;Humidity;BMP_temperature;BMP_pressure;BME280_temperature;BME280_humidity;BME280_pressure;Samples;Min_cycle;Max_cycle;Signal;HPM_P1;HPM_P2
2022/06/22 00:03:39;;;;;;;10.48;5.35;;;16.10;99.90;;;;;;15299577;19;20043;-74
2022/06/22 00:08:46;;;;;;;8.10;5.55;;;15.80;99.90;;;;;;15298863;19;20768;-74
2022/06/22 00:13:54;;;;;;;7.30;4.85;;;15.70;99.90;;;;;;15302245;19;20014;-74
2022/06/22 00:19:00;;;;;;;8.95;5.65;;;15.60;99.90;;;;;;15300164;19;20087;-75
2022/06/22 00:24:56;;;;;;;6.95;5.10;;;15.50;99.90;;;;;;15299317;19;20053;-74
2022/06/22 00:30:29;;;;;;;7.30;5.22;;;15.50;99.90;;;;;;15308878;19;20011;-74
2022/06/22 00:35:44;;;;;;;7.15;4.82;;;15.40;99.90;;;;;;15315256;19;20466;-74
2022/06/22 00:41:20;;;;;;;7.00;4.85;;;15.30;99.90;;;;;;15311126;19;20015;-73
2022/06/22 00:46:26;;;;;;;9.35;5.05;;;15.20;99.90;;;;;;15306255;19;20509;-73
2022/06/22 00:51:33;;;;;;;6.90;4.82;;;15.80;99.90;;;;;;15307416;19;20010;-74
2022/06/22 00:56:50;;;;;;;6.68;5.35;;;14.90;99.90;;;;;;15314711;19;20480;-74
2022/06/22 01:01:58;;;;;;;9.13;5.07;;;15.00;99.90;;;;;;15310362;19;20015;-73
2022/06/22 01:07:10;;;;;;;7.80;5.43;;;14.90;99.90;;;;;;15313525;19;20021;-73
2022/06/22 01:12:22;;;;;;;7.95;5.47;;;14.80;99.90;;;;;;15310557;19;20426;-73
2022/06/22 01:18:01;;;;;;;8.53;6.23;;;14.80;99.90;;;;;;15307031;19;20014;-73
2022/06/22 01:23:35;;;;;;;8.32;5.80;;;14.20;99.90;;;;;;15310793;19;20015;-74
2022/06/22 01:28:42;;;;;;;10.98;6.78;;;14.60;99.90;;;;;;15312156;19;20022;-74
2022/06/22 01:33:50;;;;;;;11.15;6.85;;;14.40;99.90;;;;;;15312658;19;20018;-73
2022/06/22 01:39:15;;;;;;;9.13;6.38;;;14.30;99.90;;;;;;15311724;19;20015;-73
2022/06/22 01:44:27;;;;;;;11.13;6.57;;;14.30;99.90;;;;;;15313020;19;20010;-74
2022/06/22 01:49:36;;;;;;;13.05;8.18;;;14.30;99.90;;;;;;15308495;19;20017;-73
2022/06/22 01:54:44;;;;;;;9.55;6.50;;;14.20;99.90;;;;;;15312125;19;20354;-73
2022/06/22 01:59:56;;;;;;;9.98;6.25;;;13.80;99.90;;;;;;15312236;19;20086;-74
2022/06/22 02:05:06;;;;;;;9.85;7.10;;;14.00;99.90;;;;;;15313282;19;20015;-74
2022/06/22 02:10:23;;;;;;;12.27;7.65;;;14.10;99.90;;;;;;15311709;19;20023;-74
2022/06/22 02:15:45;;;;;;;14.35;7.10;;;13.80;99.90;;;;;;15307922;19;20035;-73
2022/06/22 02:21:22;;;;;;;11.02;6.80;;;13.80;99.90;;;;;;15303790;19;20100;-74
2022/06/22 02:26:51;;;;;;;8.57;6.88;;;13.80;99.90;;;;;;15303838;19;20070;-74
2022/06/22 02:32:02;;;;;;;10.43;7.20;;;13.60;99.90;;;;;;15309902;19;20543;-73
2022/06/22 02:37:10;;;;;;;10.45;7.00;;;13.60;99.90;;;;;;15301946;19;20042;-73
2022/06/22 02:47:47;;;;;;;10.98;7.38;;;13.50;99.90;;;;;;15311123;19;20022;-74
2022/06/22 02:52:53;;;;;;;14.48;7.38;;;13.40;99.90;;;;;;15306801;19;20010;-74
2022/06/22 02:58:01;;;;;;;9.88;7.15;;;13.50;99.90;;;;;;15302798;19;20459;-73
2022/06/22 03:03:27;;;;;;;13.88;7.68;;;13.30;99.90;;;;;;15303688;19;20011;-74
2022/06/22 03:08:32;;;;;;;10.38;7.60;;;13.30;99.90;;;;;;15301335;19;20371;-74
2022/06/22 03:13:40;;;;;;;10.10;7.40;;;13.20;99.90;;;;;;15305570;19;20031;-74
2022/06/22 03:19:11;;;;;;;11.98;7.82;;;13.70;99.90;;;;;;15299559;19;20010;-74
2022/06/22 03:24:20;;;;;;;13.27;7.63;;;13.30;99.90;;;;;;15301352;19;20043;-74
2022/06/22 03:29:28;;;;;;;11.48;7.43;;;13.20;99.90;;;;;;15305957;19;20010;-74
2022/06/22 03:34:39;;;;;;;9.75;6.30;;;13.20;99.90;;;;;;15303176;19;20043;-73
2022/06/22 03:39:48;;;;;;;10.23;6.55;;;13.20;99.90;;;;;;15304653;19;20007;-73
2022/06/22 03:45:17;;;;;;;10.23;6.25;;;13.00;99.90;;;;;;15301909;19;20012;-74
2022/06/22 03:50:35;;;;;;;8.98;6.25;;;13.00;99.90;;;;;;15296489;19;20341;-76
2022/06/22 03:56:07;;;;;;;11.55;6.10;;;12.90;99.90;;;;;;15290806;19;20043;-72
2022/06/22 04:01:31;;;;;;;11.90;7.38;;;13.10;99.90;;;;;;15303059;19;20019;-72
2022/06/22 04:06:58;;;;;;;10.57;7.28;;;13.10;99.90;;;;;;15295000;19;20022;-72
2022/06/22 04:12:07;;;;;;;10.40;7.15;;;12.90;99.90;;;;;;15301333;19;20015;-72
2022/06/22 04:17:16;;;;;;;13.02;8.50;;;13.10;99.90;;;;;;15298413;19;20090;-72
2022/06/22 04:22:46;;;;;;;15.30;8.45;;;13.00;99.90;;;;;;15295685;19;20468;-73
2022/06/22 04:27:52;;;;;;;10.55;7.03;;;13.00;99.90;;;;;;15298707;19;20052;-72
2022/06/22 04:33:04;;;;;;;10.43;6.97;;;13.00;99.90;;;;;;15298874;19;20074;-72
2022/06/22 04:38:20;;;;;;;8.93;6.20;;;12.80;99.90;;;;;;15296250;19;20032;-72
2022/06/22 04:43:24;;;;;;;7.22;6.03;;;13.00;99.90;;;;;;15297019;19;20316;-72
2022/06/22 04:48:32;;;;;;;11.88;7.13;;;13.00;99.90;;;;;;15299944;19;20461;-73
2022/06/22 04:53:44;;;;;;;11.50;7.60;;;13.00;99.90;;;;;;15299898;19;20078;-73
2022/06/22 04:58:51;;;;;;;12.93;7.35;;;13.00;99.90;;;;;;15296191;19;20029;-73
2022/06/22 05:04:00;;;;;;;12.23;8.60;;;13.20;99.90;;;;;;15301321;19;20015;-73
2022/06/22 05:09:33;;;;;;;12.07;7.53;;;13.30;99.90;;;;;;15296246;19;20046;-73
2022/06/22 05:14:58;;;;;;;;;;;13.20;99.90;;;;;;15306026;19;20090;-72
2022/06/22 05:20:12;;;;;;;16.92;8.55;;;13.40;99.90;;;;;;15309888;19;20343;-72
2022/06/22 05:25:40;;;;;;;14.13;8.65;;;13.50;99.90;;;;;;15308049;19;20011;-73
2022/06/22 05:30:48;;;;;;;14.43;9.07;;;13.50;99.90;;;;;;15304778;19;20031;-79
2022/06/22 05:35:58;;;;;;;16.00;9.27;;;13.60;99.90;;;;;;15310098;19;20031;-69
2022/06/22 05:41:07;;;;;;;15.32;9.05;;;13.70;99.90;;;;;;15310085;19;20492;-72
2022/06/22 05:46:13;;;;;;;15.63;9.68;;;13.80;99.90;;;;;;15311866;19;20037;-72
2022/06/22 05:51:25;;;;;;;17.42;10.88;;;13.90;99.90;;;;;;15304324;19;20035;-71
2022/06/22 05:56:37;;;;;;;18.50;10.95;;;13.90;99.90;;;;;;15307953;19;20342;-71
2022/06/22 06:02:05;;;;;;;18.13;11.10;;;13.90;99.90;;;;;;15299586;19;20392;-70
2022/06/22 06:07:35;;;;;;;21.02;11.68;;;14.10;99.90;;;;;;15296906;19;20396;-72
2022/06/22 06:12:49;;;;;;;18.40;9.68;;;14.20;99.90;;;;;;15307823;19;20022;-71
2022/06/22 06:17:57;;;;;;;19.80;11.18;;;14.30;99.90;;;;;;15302342;19;20021;-71
2022/06/22 06:23:24;;;;;;;15.18;8.90;;;14.30;99.90;;;;;;15297334;19;20015;-72
2022/06/22 06:29:05;;;;;;;17.45;9.95;;;14.10;99.90;;;;;;15306252;19;20011;-71
2022/06/22 06:34:17;;;;;;;20.92;11.00;;;14.50;99.90;;;;;;15308606;19;20034;-72
2022/06/22 06:39:46;;;;;;;18.07;10.70;;;14.60;99.90;;;;;;15301555;19;20023;-72
2022/06/22 06:44:55;;;;;;;17.33;9.73;;;14.40;99.90;;;;;;15306371;19;20011;-73
2022/06/22 06:50:06;;;;;;;19.27;10.55;;;14.60;99.90;;;;;;15304250;19;20017;-72
2022/06/22 06:55:22;;;;;;;;;;;14.80;99.90;;;;;;15306876;19;20074;-72
2022/06/22 07:00:29;;;;;;;14.80;9.25;;;14.90;99.90;;;;;;15300907;19;19915;-72
2022/06/22 07:05:33;;;;;;;18.63;10.35;;;14.90;99.90;;;;;;15306993;19;20022;-72
2022/06/22 07:10:40;;;;;;;15.63;8.25;;;14.90;99.90;;;;;;15304322;19;20035;-72
2022/06/22 07:15:52;;;;;;;13.70;7.00;;;15.10;99.90;;;;;;15299238;19;20029;-72
2022/06/22 07:21:21;;;;;;;10.05;6.15;;;15.20;99.90;;;;;;15298650;19;20025;-73
2022/06/22 07:26:54;;;;;;;16.52;6.38;;;15.20;99.90;;;;;;15301540;19;20015;-72
2022/06/22 07:32:07;;;;;;;9.38;5.00;;;15.40;99.90;;;;;;15302894;19;20536;-72
2022/06/22 07:37:16;;;;;;;8.93;4.97;;;15.60;99.90;;;;;;15296608;19;20028;-72
2022/06/22 07:42:40;;;;;;;8.73;5.13;;;15.20;99.90;;;;;;15304285;19;20464;-72
2022/06/22 07:47:55;;;;;;;9.35;5.15;;;15.30;99.90;;;;;;15301542;19;20482;-72
2022/06/22 07:53:03;;;;;;;10.68;5.07;;;15.70;99.90;;;;;;15300152;19;20031;-73
2022/06/22 07:58:33;;;;;;;11.02;4.80;;;15.50;99.90;;;;;;15295957;19;20497;-72
2022/06/22 08:03:45;;;;;;;11.88;4.38;;;15.60;99.90;;;;;;15304807;19;20024;-72
2022/06/22 08:08:58;;;;;;;10.65;4.13;;;15.70;99.90;;;;;;15300776;19;20018;-72
2022/06/22 08:14:08;;;;;;;8.02;4.00;;;15.80;99.90;;;;;;15304810;19;20018;-72
2022/06/22 08:19:15;;;;;;;7.68;3.60;;;15.80;99.90;;;;;;15297237;19;20491;-73
2022/06/22 08:24:44;;;;;;;11.05;3.67;;;15.90;99.90;;;;;;15303158;19;20074;-72
2022/06/22 08:29:50;;;;;;;13.10;4.40;;;16.10;99.90;;;;;;15295170;19;20015;-72
2022/06/22 08:34:58;;;;;;;8.65;4.00;;;16.00;99.90;;;;;;15304144;19;20022;-72
2022/06/22 08:40:09;;;;;;;8.45;5.45;;;16.20;99.90;;;;;;15297663;19;20015;-72
2022/06/22 08:45:46;;;;;;;17.83;6.45;;;16.40;99.90;;;;;;15302253;19;20010;-72
2022/06/22 08:51:21;;;;;;;10.30;5.40;;;16.30;99.90;;;;;;15301985;19;20115;-72
2022/06/22 08:56:34;;;;;;;12.35;5.90;;;16.50;99.90;;;;;;15316341;19;20097;-71
2022/06/22 09:01:50;;;;;;;12.57;5.55;;;16.90;99.90;;;;;;15315839;19;20007;-72
2022/06/22 09:07:16;;;;;;;13.05;5.03;;;16.90;99.90;;;;;;15310063;19;20340;-72
2022/06/22 09:12:56;;;;;;;9.93;4.80;;;16.80;99.90;;;;;;15314350;19;20798;-72
2022/06/22 09:18:50;;;;;;;11.73;4.57;;;16.70;99.90;;;;;;15308556;19;20011;-72
2022/06/22 09:24:05;;;;;;;8.45;4.45;;;17.20;99.90;;;;;;15308483;19;20010;-72
2022/06/22 09:29:23;;;;;;;6.47;3.95;;;17.20;99.90;;;;;;15316294;19;20014;-72
2022/06/22 09:34:54;;;;;;;10.02;5.15;;;17.20;99.90;;;;;;15314942;19;20010;-72
2022/06/22 09:40:45;;;;;;;11.55;3.90;;;17.40;99.90;;;;;;15308473;19;20086;-73
2022/06/22 09:46:06;;;;;;;8.95;4.15;;;17.40;99.90;;;;;;15304809;19;20030;-73
2022/06/22 09:51:40;;;;;;;7.82;3.60;;;17.60;99.90;;;;;;15308610;19;20011;-73
2022/06/22 09:57:18;;;;;;;7.65;4.30;;;18.00;99.90;;;;;;15304678;19;20011;-73
2022/06/22 10:03:08;;;;;;;8.10;4.30;;;17.90;99.90;;;;;;15311263;19;20011;-73
2022/06/22 10:08:57;;;;;;;8.38;4.55;;;18.30;99.90;;;;;;15294254;19;20022;-72
2022/06/22 10:14:21;;;;;;;8.35;4.00;;;18.40;99.90;;;;;;15312434;19;20017;-71
2022/06/22 10:19:56;;;;;;;7.80;4.07;;;18.60;99.90;;;;;;15292896;19;20010;-73
2022/06/22 10:25:38;;;;;;;7.40;4.10;;;18.70;98.80;;;;;;15306711;19;20010;-73
2022/06/22 10:31:14;;;;;;;7.60;3.30;;;18.80;98.20;;;;;;15302310;19;20043;-71
2022/06/22 10:36:36;;;;;;;8.43;3.83;;;19.00;99.80;;;;;;15306975;19;20087;-73
2022/06/22 10:47:25;;;;;;;6.35;3.67;;;19.30;99.00;;;;;;15304520;19;20014;-73
2022/06/22 10:52:50;;;;;;;11.27;3.60;;;19.70;99.10;;;;;;15299746;19;20011;-73
2022/06/22 10:58:27;;;;;;;6.70;3.10;;;19.90;98.60;;;;;;15302739;19;20010;-73
2022/06/22 11:04:09;;;;;;;7.97;3.38;;;20.10;97.60;;;;;;15304554;19;20472;-73
2022/06/22 11:09:37;;;;;;;8.77;4.22;;;20.20;96.00;;;;;;15302271;19;20033;-73
2022/06/22 11:15:23;;;;;;;6.65;3.78;;;20.20;95.90;;;;;;15301339;19;20078;-73
2022/06/22 11:21:05;;;;;;;9.55;3.90;;;20.00;95.80;;;;;;15295671;19;20664;-73
2022/06/22 11:32:21;;;;;;;7.07;3.55;;;20.40;95.70;;;;;;15300886;19;20014;-75
2022/06/22 11:37:49;;;;;;;9.85;3.85;;;20.70;95.40;;;;;;15301218;19;20018;-75
2022/06/22 11:43:06;;;;;;;9.70;4.20;;;20.80;95.10;;;;;;15307520;19;20015;-75
2022/06/22 11:48:34;;;;;;;8.00;3.60;;;20.70;93.60;;;;;;15297553;19;20371;-75
2022/06/22 11:54:12;;;;;;;8.23;3.40;;;20.90;93.30;;;;;;15303929;19;20077;-75
2022/06/22 11:59:43;;;;;;;7.57;3.47;;;21.10;94.00;;;;;;15294197;19;20026;-75
2022/06/22 12:05:11;;;;;;;7.20;3.55;;;21.50;94.20;;;;;;15305741;19;20409;-75
2022/06/22 12:10:33;;;;;;;7.32;3.70;;;21.70;93.10;;;;;;15297696;19;20072;-75
2022/06/22 12:15:49;;;;;;;;;;;22.00;92.70;;;;;;15299717;19;20023;-75
2022/06/22 12:21:14;;;;;;;8.50;4.00;;;22.10;93.20;;;;;;15295107;19;19914;-75
2022/06/22 12:26:38;;;;;;;6.75;3.42;;;22.20;91.80;;;;;;15310520;19;20007;-75
2022/06/22 12:31:47;;;;;;;9.07;3.55;;;22.70;92.50;;;;;;15320141;19;20036;-75
2022/06/22 12:36:56;;;;;;;9.02;3.75;;;23.00;92.60;;;;;;15308457;19;20360;-75
2022/06/22 12:42:24;;;;;;;10.68;4.68;;;23.20;92.10;;;;;;15317235;19;20039;-75
2022/06/22 12:48:02;;;;;;;6.63;3.60;;;22.90;89.40;;;;;;15308430;19;20138;-75
2022/06/22 12:53:09;;;;;;;9.60;3.45;;;22.80;90.20;;;;;;15312600;19;20090;-75
2022/06/22 12:58:22;;;;;;;10.25;3.45;;;23.30;90.70;;;;;;15309997;19;20021;-75
2022/06/22 13:03:29;;;;;;;6.68;3.10;;;23.60;90.70;;;;;;15315456;19;20496;-75
2022/06/22 13:08:34;;;;;;;8.45;3.30;;;23.70;90.70;;;;;;15313041;19;20385;-76
2022/06/22 13:13:51;;;;;;;7.90;3.30;;;23.60;88.60;;;;;;15310755;19;20025;-75
2022/06/22 13:19:04;;;;;;;6.15;3.08;;;24.00;87.50;;;;;;15304663;19;20504;-75
2022/06/22 13:24:20;;;;;;;5.13;2.92;;;24.50;86.50;;;;;;15306829;19;20387;-75
2022/06/22 13:29:34;;;;;;;7.20;3.30;;;24.40;77.80;;;;;;15310339;19;20054;-76
2022/06/22 13:34:44;;;;;;;7.45;3.20;;;24.50;81.90;;;;;;15304737;19;20015;-73
2022/06/22 13:40:02;;;;;;;6.90;3.30;;;24.80;81.00;;;;;;15303026;19;20020;-73
2022/06/22 13:45:35;;;;;;;11.18;3.70;;;25.20;84.50;;;;;;15309131;19;20143;-75
2022/06/22 13:51:07;;;;;;;7.07;3.28;;;25.50;80.90;;;;;;15303734;19;20014;-75
2022/06/22 13:56:15;;;;;;;;;;;25.70;81.30;;;;;;15311068;19;20025;-74
2022/06/22 14:01:28;;;;;;;7.65;3.78;;;25.90;79.30;;;;;;15306302;19;20282;-74
2022/06/22 14:06:37;;;;;;;7.35;3.33;;;25.80;79.70;;;;;;15312064;19;20015;-75
2022/06/22 14:11:48;;;;;;;11.40;3.42;;;26.00;80.50;;;;;;15303566;19;20010;-75
2022/06/22 14:16:58;;;;;;;9.07;3.97;;;26.30;78.90;;;;;;15307264;19;20018;-74
2022/06/22 14:22:04;;;;;;;9.65;3.22;;;26.70;79.10;;;;;;15307428;19;20259;-74
2022/06/22 14:27:25;;;;;;;24.38;5.80;;;26.70;78.20;;;;;;15305256;19;20022;-75
2022/06/22 14:32:42;;;;;;;9.20;3.60;;;27.00;75.40;;;;;;15302757;19;20013;-75
2022/06/22 14:37:53;;;;;;;108.90;11.82;;;27.20;76.70;;;;;;15302092;19;20017;-74
2022/06/22 14:43:00;;;;;;;20.42;5.53;;;26.80;74.80;;;;;;15304107;19;20373;-76
2022/06/22 14:48:15;;;;;;;10.75;3.45;;;26.70;75.50;;;;;;15308478;19;20014;-74
2022/06/22 14:53:45;;;;;;;14.00;4.18;;;27.30;76.70;;;;;;15304575;19;20018;-75
2022/06/22 14:58:55;;;;;;;12.00;4.10;;;27.20;73.10;;;;;;15308729;19;20026;-74
2022/06/22 15:04:07;;;;;;;7.55;3.50;;;27.40;74.50;;;;;;15306645;19;20460;-74
2022/06/22 15:09:18;;;;;;;12.05;3.40;;;27.50;74.60;;;;;;15296045;19;20022;-76
2022/06/22 15:14:29;;;;;;;12.43;3.60;;;27.30;74.50;;;;;;15199687;19;20464;-75
2022/06/22 15:19:48;;;;;;;6.60;3.45;;;27.70;73.60;;;;;;15291161;19;20057;-75
2022/06/22 15:25:04;;;;;;;5.90;2.95;;;27.40;73.10;;;;;;15297793;19;20018;-75
2022/06/22 15:30:20;;;;;;;5.43;3.00;;;27.20;74.20;;;;;;15300694;19;20078;-75
2022/06/22 15:35:35;;;;;;;7.65;3.15;;;27.70;73.90;;;;;;15302912;19;20040;-76
2022/06/22 15:40:57;;;;;;;6.72;3.40;;;27.50;72.50;;;;;;15300079;19;20007;-75
2022/06/22 15:46:06;;;;;;;;;;;27.80;73.80;;;;;;15295173;19;20011;-75
2022/06/22 15:51:23;;;;;;;7.68;3.15;;;28.10;72.80;;;;;;15294789;19;19922;-75
2022/06/22 15:56:34;;;;;;;7.50;3.75;;;28.30;72.30;;;;;;15294492;19;20488;-74
2022/06/22 16:01:45;;;;;;;8.68;2.95;;;28.30;70.90;;;;;;15296710;19;20023;-74
2022/06/22 16:06:57;;;;;;;8.45;2.88;;;28.10;69.70;;;;;;15300407;19;20018;-74
2022/06/22 16:17:31;;;;;;;6.55;3.10;;;28.50;68.70;;;;;;15293774;19;20015;-74
2022/06/22 16:22:43;;;;;;;5.05;2.33;;;28.50;67.60;;;;;;15301580;19;20010;-74
2022/06/22 16:27:53;;;;;;;7.35;2.97;;;28.40;67.70;;;;;;15288484;19;20070;-74
2022/06/22 16:33:01;;;;;;;7.17;2.77;;;28.30;67.70;;;;;;15302435;19;20022;-74
2022/06/22 16:38:16;;;;;;;8.43;2.92;;;28.50;67.60;;;;;;15298491;19;20015;-74
2022/06/22 16:43:28;;;;;;;5.88;2.80;;;28.80;66.30;;;;;;15297450;19;20014;-74
2022/06/22 16:48:37;;;;;;;6.38;3.05;;;28.60;65.50;;;;;;15293406;19;20007;-74
2022/06/22 16:53:50;;;;;;;7.10;2.60;;;28.50;65.80;;;;;;15293273;19;20019;-74
2022/06/22 16:59:01;;;;;;;8.98;2.90;;;28.60;66.20;;;;;;15297233;19;20043;-74
2022/06/22 17:04:17;;;;;;;6.32;2.33;;;28.50;65.80;;;;;;15295701;19;20015;-75
2022/06/22 17:09:29;;;;;;;5.50;2.30;;;28.80;65.10;;;;;;15301406;19;20018;-75
2022/06/22 17:14:35;;;;;;;6.80;2.42;;;28.70;65.30;;;;;;15308457;19;20505;-73
2022/06/22 17:19:50;;;;;;;6.55;2.35;;;28.80;65.30;;;;;;15305050;19;20055;-74
2022/06/22 17:25:01;;;;;;;5.55;2.33;;;28.80;64.70;;;;;;15310614;19;20019;-73
2022/06/22 17:30:09;;;;;;;3.40;1.90;;;28.90;64.80;;;;;;15309312;19;20078;-73
2022/06/22 17:35:22;;;;;;;5.18;2.10;;;28.60;65.10;;;;;;15312644;19;20022;-73
2022/06/22 17:40:39;;;;;;;5.07;2.20;;;28.70;65.50;;;;;;15307888;19;20038;-73
2022/06/22 17:45:53;;;;;;;5.90;2.08;;;28.70;65.00;;;;;;15311086;19;20449;-74
2022/06/22 17:50:59;;;;;;;2.83;1.65;;;28.60;65.50;;;;;;15301345;19;20384;-73
2022/06/22 17:56:09;;;;;;;4.03;1.77;;;28.50;65.70;;;;;;15304050;19;20019;-73
2022/06/22 18:01:27;;;;;;;3.70;1.88;;;28.30;65.70;;;;;;15298934;19;20035;-74
2022/06/22 18:06:37;;;;;;;3.67;1.70;;;28.40;65.70;;;;;;15306661;19;20032;-74
2022/06/22 18:11:49;;;;;;;4.07;1.55;;;28.60;65.90;;;;;;15309621;19;20487;-74
2022/06/22 18:16:58;;;;;;;4.32;1.83;;;28.30;65.40;;;;;;15307777;19;20014;-73
2022/06/22 18:22:05;;;;;;;3.15;2.03;;;28.10;64.90;;;;;;15307632;19;20512;-74
2022/06/22 18:27:15;;;;;;;5.95;1.80;;;28.10;65.40;;;;;;15304528;19;20364;-74
2022/06/22 18:32:28;;;;;;;3.17;1.73;;;27.80;65.50;;;;;;15308744;19;20015;-74
2022/06/22 18:37:41;;;;;;;4.03;1.73;;;27.70;66.60;;;;;;15306284;19;20381;-74
2022/06/22 18:42:51;;;;;;;5.03;1.80;;;27.40;66.40;;;;;;15300256;19;20380;-73
2022/06/22 18:48:01;;;;;;;5.28;1.63;;;27.30;67.10;;;;;;15303115;19;20508;-73
2022/06/22 18:53:14;;;;;;;4.15;1.90;;;27.00;67.20;;;;;;15299648;19;20472;-74
2022/06/22 18:58:24;;;;;;;3.03;1.80;;;27.00;68.10;;;;;;15306900;19;20026;-74
2022/06/22 19:03:31;;;;;;;2.43;1.40;;;26.70;68.40;;;;;;15306681;19;20018;-73
2022/06/22 19:08:38;;;;;;;4.68;1.65;;;26.50;69.00;;;;;;15304284;19;20039;-73
2022/06/22 19:13:49;;;;;;;2.95;1.75;;;26.20;69.70;;;;;;15152832;19;20019;-73
2022/06/22 19:19:13;;;;;;;3.72;1.80;;;26.50;69.30;;;;;;15300829;19;20039;-70
2022/06/22 19:24:34;;;;;;;4.85;1.70;;;26.40;69.50;;;;;;15299890;19;20468;-71
2022/06/22 19:36:31;;;;;;;3.40;1.90;;;25.40;70.80;;;;;;8909190;19;2993640;-69
2022/06/22 19:39:44;;;;;;;5.75;1.90;;;24.40;74.90;;;;;;9127388;19;20044;-70
2022/06/22 19:43:00;;;;;;;3.17;1.83;;;24.20;76.10;;;;;;9222885;19;20098;-69
2022/06/22 19:46:19;;;;;;;5.22;2.00;;;23.70;77.00;;;;;;9223906;19;20018;-69
2022/06/22 19:49:35;;;;;;;3.95;2.05;;;23.40;78.50;;;;;;9220176;19;20033;-69
2022/06/22 19:53:01;;;;;;;2.25;1.60;;;22.80;79.60;;;;;;9222719;19;20014;-74
2022/06/22 19:56:13;;;;;;;3.60;1.77;;;22.60;81.80;;;;;;9218577;19;20054;-69
2022/06/22 19:59:20;;;;;;;3.83;1.90;;;22.30;83.60;;;;;;9224173;19;20021;-69
2022/06/22 20:02:28;;;;;;;2.72;2.10;;;22.10;85.60;;;;;;9223324;19;20025;-68
2022/06/22 20:05:39;;;;;;;5.50;2.20;;;21.80;87.40;;;;;;9221700;19;20018;-69
2022/06/22 20:08:49;;;;;;;3.10;1.83;;;21.80;89.10;;;;;;9133883;19;20045;-69
2022/06/22 20:11:56;;;;;;;2.70;2.10;;;21.30;90.40;;;;;;9222770;19;20050;-69
2022/06/22 20:15:06;;;;;;;4.32;1.88;;;21.30;91.10;;;;;;9220707;19;20017;-69
2022/06/22 20:18:11;;;;;;;3.88;2.20;;;21.20;92.00;;;;;;9224338;19;20014;-70
2022/06/22 20:21:25;;;;;;;3.85;2.13;;;21.10;92.30;;;;;;9222607;19;20019;-69
2022/06/22 20:24:42;;;;;;;3.78;2.13;;;21.00;93.50;;;;;;9223232;19;20864;-69
2022/06/22 20:27:57;;;;;;;3.78;2.00;;;20.70;94.10;;;;;;9225231;19;20359;-69
2022/06/22 20:31:09;;;;;;;3.50;2.00;;;20.70;94.70;;;;;;9223567;19;20029;-68
2022/06/22 20:34:42;;;;;;;3.90;1.92;;;20.70;95.00;;;;;;9219293;19;20024;-69
2022/06/22 20:37:49;;;;;;;3.35;1.98;;;20.40;94.90;;;;;;9222825;19;20037;-68
2022/06/22 20:44:51;;;;;;;3.33;2.20;;;20.20;96.40;;;;;;9222890;19;20022;-68
2022/06/22 20:48:10;;;;;;;4.70;2.40;;;20.20;96.70;;;;;;9184333;19;20014;-68
2022/06/22 20:51:20;;;;;;;4.40;2.30;;;19.90;97.00;;;;;;8928759;19;20019;-70
2022/06/22 20:54:30;;;;;;;3.00;2.15;;;20.10;97.20;;;;;;8064174;19;15037515;-68
2022/06/22 20:57:41;;;;;;;4.75;2.22;;;20.10;97.30;;;;;;9186335;19;20010;-68
2022/06/22 21:00:47;;;;;;;3.97;2.55;;;20.10;97.60;;;;;;9187106;19;20025;-68
2022/06/22 21:03:55;;;;;;;3.42;2.20;;;19.90;97.60;;;;;;9182437;19;20353;-68
2022/06/22 21:07:01;;;;;;;3.78;2.40;;;19.90;97.80;;;;;;9182508;19;20014;-68
2022/06/22 21:10:10;;;;;;;4.00;2.53;;;19.80;98.20;;;;;;9187217;19;20011;-68
2022/06/22 21:13:39;;;;;;;4.35;2.53;;;19.60;98.30;;;;;;9182242;19;20044;-70
2022/06/22 21:17:02;;;;;;;2.55;1.90;;;19.60;98.70;;;;;;9179045;19;20500;-71
2022/06/22 21:20:07;;;;;;;3.35;2.33;;;19.40;98.70;;;;;;9186413;19;20018;-72
2022/06/22 21:23:29;;;;;;;3.72;2.20;;;19.30;99.00;;;;;;9178592;19;20310;-72
2022/06/22 21:26:35;;;;;;;4.40;2.00;;;19.30;99.90;;;;;;9185739;19;20078;-72
2022/06/22 21:29:42;;;;;;;4.13;2.20;;;19.10;99.70;;;;;;9150096;19;20010;-72
2022/06/22 21:32:47;;;;;;;2.58;1.98;;;19.10;99.80;;;;;;9186857;19;20014;-72
2022/06/22 21:36:05;;;;;;;3.77;1.90;;;19.00;99.90;;;;;;9178554;19;20010;-71
2022/06/22 21:39:13;;;;;;;4.22;1.98;;;18.90;99.90;;;;;;9183363;19;20018;-72
2022/06/22 21:42:28;;;;;;;3.75;2.30;;;18.90;99.90;;;;;;9186162;19;20042;-72
2022/06/22 21:45:45;;;;;;;2.90;2.08;;;18.80;99.90;;;;;;9184664;19;20487;-71
2022/06/22 21:49:04;;;;;;;3.53;2.25;;;18.80;99.90;;;;;;9185939;19;20014;-73
2022/06/22 21:52:34;;;;;;;3.33;2.17;;;18.70;99.90;;;;;;9182073;19;20379;-73
2022/06/22 21:55:47;;;;;;;4.63;2.50;;;18.60;99.90;;;;;;9181587;19;20014;-73
2022/06/22 21:59:08;;;;;;;3.10;2.30;;;18.40;99.90;;;;;;9180248;19;20022;-72
2022/06/22 22:02:25;;;;;;;3.63;2.45;;;18.40;99.90;;;;;;9186344;19;20014;-73
2022/06/22 22:05:42;;;;;;;3.33;2.20;;;18.40;99.90;;;;;;9184178;19;20036;-72
2022/06/22 22:09:10;;;;;;;3.97;2.42;;;18.20;99.90;;;;;;9184900;19;20026;-72
2022/06/22 22:12:18;;;;;;;3.35;2.65;;;18.10;99.90;;;;;;9181194;19;20074;-72
2022/06/22 22:15:25;;;;;;;4.05;2.45;;;18.10;99.90;;;;;;9182920;19;20033;-73
2022/06/22 22:18:33;;;;;;;4.65;2.50;;;18.00;99.90;;;;;;9183845;19;20347;-72
2022/06/22 22:21:47;;;;;;;4.13;2.83;;;17.80;99.90;;;;;;9181521;19;20010;-73
2022/06/22 22:24:54;;;;;;;3.35;2.63;;;17.90;99.90;;;;;;9182032;19;20018;-71
2022/06/22 22:28:03;;;;;;;3.45;2.80;;;17.80;99.90;;;;;;9185026;19;20018;-72
2022/06/22 22:31:07;;;;;;;3.63;2.60;;;17.80;99.90;;;;;;9180933;19;20007;-72
2022/06/22 22:34:18;;;;;;;5.07;2.88;;;17.80;99.90;;;;;;9180370;19;20087;-72
2022/06/22 22:37:28;;;;;;;5.38;3.00;;;17.70;99.90;;;;;;9186004;19;20021;-72
2022/06/22 22:40:41;;;;;;;4.75;3.33;;;17.70;99.90;;;;;;9180346;19;20126;-73
2022/06/22 22:43:53;;;;;;;5.30;3.25;;;17.50;99.90;;;;;;9179825;19;20006;-74
2022/06/22 22:47:03;;;;;;;5.32;3.70;;;17.40;99.90;;;;;;9179509;19;20047;-72
2022/06/22 22:50:15;;;;;;;4.57;3.00;;;17.20;99.90;;;;;;9179780;19;20021;-73
2022/06/22 22:53:23;;;;;;;6.93;3.45;;;17.10;99.90;;;;;;9182530;19;20471;-72
2022/06/22 22:56:27;;;;;;;4.50;3.28;;;17.10;99.90;;;;;;9179120;19;20021;-72
2022/06/22 22:59:32;;;;;;;5.78;3.50;;;17.20;99.90;;;;;;9184892;19;20019;-72
2022/06/22 23:02:38;;;;;;;4.78;3.47;;;17.20;99.90;;;;;;9178935;19;20028;-72
2022/06/22 23:05:47;;;;;;;6.07;3.85;;;17.00;99.90;;;;;;9182402;19;20052;-72
2022/06/22 23:08:53;;;;;;;6.10;4.13;;;16.90;99.90;;;;;;9181228;19;20014;-74
2022/06/22 23:11:59;;;;;;;5.15;3.72;;;17.00;99.90;;;;;;9178934;19;20017;-72
2022/06/22 23:15:05;;;;;;;5.80;4.13;;;17.00;99.90;;;;;;9183642;19;20014;-72
2022/06/22 23:18:14;;;;;;;6.13;3.92;;;16.80;99.90;;;;;;9178353;19;20007;-72
2022/06/22 23:21:28;;;;;;;7.20;4.28;;;16.90;99.90;;;;;;9178932;19;20018;-72
2022/06/22 23:24:32;;;;;;;5.60;4.20;;;16.80;99.90;;;;;;9179296;19;20089;-72
2022/06/22 23:27:38;;;;;;;6.32;4.40;;;16.80;99.90;;;;;;9180660;19;20102;-72
2022/06/22 23:30:54;;;;;;;6.18;4.53;;;16.70;99.90;;;;;;9178492;19;20070;-72
2022/06/22 23:33:59;;;;;;;6.30;4.57;;;16.80;99.90;;;;;;9179229;19;20483;-72
2022/06/22 23:37:27;;;;;;;6.63;4.93;;;16.70;99.90;;;;;;9176009;19;20082;-72
2022/06/22 23:40:33;;;;;;;7.18;4.60;;;16.70;99.90;;;;;;9179306;19;20010;-72
2022/06/22 23:43:41;;;;;;;8.13;5.03;;;16.80;99.90;;;;;;9182343;19;20460;-72
2022/06/22 23:48:10;;;;;;;6.78;4.72;;;16.80;99.90;;;;;;9180370;19;20528;-72
2022/06/22 23:50:16;;;;;;;8.55;4.97;;;16.70;99.90;;;;;;9177470;19;20011;-73
2022/06/22 23:53:39;;;;;;;8.82;5.00;;;16.60;99.90;;;;;;9178553;19;20024;-72
2022/06/22 23:56:46;;;;;;;6.93;4.85;;;16.50;99.90;;;;;;9178066;19;20021;-72
2022/06/22 23:59:50;;;;;;;7.45;4.93;;;16.50;99.90;;;;;;9182605;19;20014;-72
